Aeroporto :
LOGIN :

Iscrizione | Disclaimer

   EN    FR    IT 

 










Sommario :    VFR   VFR Marginale   IFR   IFR Intensivo   IFR Molto Intensivo
Visibilità : 
Base nubi : 
>= 8 km
>= 3000ft
5 / 8 km
1000 / 3000 ft
1500m / 5 km
500 / 1000 ft
800 / 1500m
200 / 500 ft
< 800m
< 200 ft
Simboli :   Temporali  Nebbia  Neve Forte  Precipitazioni Forti  Vento > 20 kt
SIGMETs :   Varie  Temporali  Ghiacco  Turbolenza  Onda orograficha  Ceneri Vulcaniche







- Altitudine del aeroporto : 364 ft
- Carte del aeroporto


LFAQ - Albert Bray

ULTIMO METAR :
  • 191930Z AUTO 27007KT 5000 BR FEW009 SCT150 BKN180 16/14 Q1010

METARs OBSOLETI :
  • 191900Z AUTO 27011KT 7000 FEW009 SCT015 BKN070 16/15 Q1009
  • 191830Z AUTO 27010KT 9999 BKN009 OVC013 18/16 Q1009
  • 191800Z AUTO 26004KT 220V300 9999 FEW012 SCT060 BKN094 18/17 Q1009
  • 191730Z AUTO 28006KT 9999 SCT011/// SCT033/// BKN052/// ///CB 18/16 Q1009
  • 191700Z AUTO 31009KT 270V350 9999 1300 R27/1400D +RA FEW026/// SCT047/// BKN058/// ///CB 18/16 Q1009 TEMPO VRB25G45KT 2000 TSRAGR BECMG SCT030

TAF TAF LFAQ
Valido dal 19 a 15 ore il 20 a 00 ore UTC


191400Z 1915/1924 22008KT 9999 SCT030
TEMPO 1915/1918 VRB25G45KT 2000 TSRAGR BKN030CB
Nessun NOTAM noto per questo aeroporto.



MetMap, La meteo Aeronautica in un colpo d'occhio ! - Copyright ORBIFLY Dicembre 2007 - Disclaimer

ORBIFLY MET'MAP TEAM :

Programmazione e sviluppo : Alexandra Zaïnal
Concezione e sviluppo : Baudouin d'Aumeries
Co-Programmazione e sviluppo : Marc-Olivier Méhu
Supporto tecnico e logistico : Manuel Goepfert
Aiuto per la traduzione : Arnaldo La Scala

Contatto : metmap@orbifly.com




FONTI E CREDITI :

   NOAA